VVDN Airport Information

Runway Information
Runway 17L Length 10000 ft width 148 ft
Elevation 30 ft Threshold 0 ft Heading 172
Runway 35R Length 10000 ft Width 148 ft
Elevation 36 ft Threshold 0 ft Heading 352
Runway 17R Length 10000 ft width 148 ft
Elevation 26 ft Threshold 0 ft Heading 172
Runway 35L Length 10000 ft Width 148 ft
Elevation 28 ft Threshold 0 ft Heading 352
Airport Frequencies
Type APP Name APP Frequency 125.3 MHZ
Type GND Name GND Frequency 121.6 MHZ
Type TWR Name TWR Frequency 125 MHZ
Airport Navaids
Type NDB Name Danang Frequency 234 KHZ
Type VOR-DME Name Danang Frequency 114400 KHZ
Type NDB Name Danang Frequency 212 KHZ
Airport Weather Information & NOTAM
ADDS - METARS form results

(1055 UTC 24 April 2019)
Data provider http://aviationweather.gov/metar/data/
 
METAR text: VVDN 241030Z 11005KT 070V140 9999 FEW017 29/23 Q1007 NOSIG
Conditions at: VVDN (DA NANG INTL ARP, VN) observed 1030 UTC 24 April 2019
Temperature: 29.0°C (84°F)
Dewpoint: 23.0°C (73°F) [RH = 70%]
Pressure (altimeter): 29.73 inches Hg (1007.0 mb)
Winds: from the ESE (110 degrees) at 6 MPH (5 knots; 2.6 m/s)
Visibility: 6 or more miles (10+ km)
Ceiling: at least 12,000 feet AGL
Clouds: few clouds at 1700 feet AGL
Weather: no significant weather observed at this time

METAR text: VVDN 241000Z 11007KT 9999 FEW017 29/23 Q1007 NOSIG
Conditions at: VVDN (DA NANG INTL ARP, VN) observed 1000 UTC 24 April 2019
Temperature: 29.0°C (84°F)
Dewpoint: 23.0°C (73°F) [RH = 70%]
Pressure (altimeter): 29.73 inches Hg (1007.0 mb)
Winds: from the ESE (110 degrees) at 8 MPH (7 knots; 3.6 m/s)
Visibility: 6 or more miles (10+ km)
Ceiling: at least 12,000 feet AGL
Clouds: few clouds at 1700 feet AGL
Weather: no significant weather observed at this time

Forecast for: VVDN (DA NANG INTL ARP, VN)
Text: TAF VVDN 240500Z 2406/2506 12010KT 9999 FEW015
Forecast period: 0600 to 1400 UTC 24 April 2019
Forecast type: FROM: standard forecast or significant change
Winds: from the ESE (120 degrees) at 12 MPH (10 knots; 5.1 m/s)
Visibility: 6 or more miles 10+ km)
Ceiling: at least 12,000 feet AGL
Clouds: few clouds at 1500 feet AGL
Weather: no significant weather forecast for this period
Text: PROB40
Forecast period: 0800 to 1200 UTC 24 April 2019
Forecast type: TEMPORARY: The following changes expected for less than half the time period
Visibility: 2.49 miles (4.01 km)
Ceiling: 5000 feet AGL
Clouds: scattered clouds at 1500 feet AGL
few clouds at 1700 feet AGL
broken clouds at 5000 feet AGL
Weather: TSRA  (rain associated with thunderstorm(s))
Text: TEMPO 2408/2412 4000 TSRA SCT015 FEW017CB BKN050
Forecast period: 1400 UTC 24 April 2019 to 0600 UTC 25 April 2019
Forecast type: BECOMING: Conditions expected to become as follows by 1500 UTC 24 April 2019
Winds: from the SW (220 degrees) at 3 MPH (3 knots; 1.5 m/s)
Visibility: 6 or more miles 10+ km)
Ceiling: at least 12,000 feet AGL
Clouds: few clouds at 1500 feet AGL
Weather: no significant weather forecast for this period